Time;durP1;ratioP1;P1;durP2;ratioP2;P2;SDS_P1;SDS_P2;PMS_P1;PMS_P2;Temp;Humidity;BMP_temperature;BMP_pressure;BME280_temperature;BME280_humidity;BME280_pressure;Samples;Min_cycle;Max_cycle;Signal;HPM_P1;HPM_P2
2022/03/02 00:01:04;;;;;;;5.97;4.40;;;;;;;;;;5073701;28;20489;-59
2022/03/02 00:03:30;;;;;;;7.32;4.57;;;;;;;;;;5073078;28;20051;-58
2022/03/02 00:05:56;;;;;;;5.60;4.88;;;;;;;;;;5073195;28;20032;-58
2022/03/02 00:08:22;;;;;;;6.38;4.55;;;;;;;;;;5073441;28;20081;-58
2022/03/02 00:10:48;;;;;;;6.80;4.95;;;;;;;;;;5073173;28;20490;-58
2022/03/02 00:13:14;;;;;;;5.85;4.53;;;;;;;;;;5073056;28;20452;-59
2022/03/02 00:15:40;;;;;;;6.13;4.45;;;;;;;;;;5073168;28;20025;-58
2022/03/02 00:18:06;;;;;;;6.78;4.70;;;;;;;;;;5072954;28;20120;-59
2022/03/02 00:20:32;;;;;;;9.00;4.38;;;;;;;;;;5072833;28;20040;-58
2022/03/02 00:22:58;;;;;;;6.45;4.40;;;;;;;;;;5072882;28;20031;-59
2022/03/02 00:25:24;;;;;;;6.28;4.75;;;;;;;;;;5072873;28;20024;-59
2022/03/02 00:27:50;;;;;;;6.35;4.95;;;;;;;;;;5072795;28;20097;-59
2022/03/02 00:30:16;;;;;;;7.25;5.38;;;;;;;;;;5072892;28;20471;-59
2022/03/02 00:32:42;;;;;;;5.80;4.45;;;;;;;;;;5073174;28;20029;-59
2022/03/02 00:35:08;;;;;;;7.20;4.22;;;;;;;;;;5072702;28;20047;-59
2022/03/02 00:37:34;;;;;;;5.40;4.45;;;;;;;;;;5072537;28;20156;-59
2022/03/02 00:40:00;;;;;;;5.93;4.72;;;;;;;;;;5072504;28;20044;-59
2022/03/02 00:42:29;;;;;;;5.90;4.70;;;;;;;;;;5072679;28;20035;-59
2022/03/02 00:44:55;;;;;;;5.85;4.40;;;;;;;;;;5072756;28;20035;-59
2022/03/02 00:47:21;;;;;;;6.65;5.07;;;;;;;;;;5072547;28;20433;-59
2022/03/02 00:49:48;;;;;;;6.03;4.20;;;;;;;;;;5072458;28;20024;-59
2022/03/02 00:52:14;;;;;;;6.47;4.78;;;;;;;;;;5072473;28;20031;-59
2022/03/02 00:54:40;;;;;;;7.22;4.55;;;;;;;;;;5072728;28;20464;-59
2022/03/02 00:57:06;;;;;;;6.30;4.78;;;;;;;;;;5072355;28;20039;-59
2022/03/02 00:59:32;;;;;;;6.28;4.80;;;;;;;;;;5072038;28;20036;-59
2022/03/02 01:01:58;;;;;;;7.35;4.97;;;;;;;;;;5072317;28;20117;-59
2022/03/02 01:04:24;;;;;;;6.28;4.88;;;;;;;;;;5072376;28;20028;-59
2022/03/02 01:06:50;;;;;;;6.07;4.53;;;;;;;;;;5072254;28;20027;-59
2022/03/02 01:09:16;;;;;;;6.78;4.85;;;;;;;;;;5072281;28;20111;-57
2022/03/02 01:11:42;;;;;;;5.63;4.30;;;;;;;;;;5072348;28;20104;-59
2022/03/02 01:14:08;;;;;;;6.43;4.78;;;;;;;;;;5072408;28;20035;-59
2022/03/02 01:16:34;;;;;;;5.28;4.32;;;;;;;;;;5072088;28;20024;-59
2022/03/02 01:19:00;;;;;;;7.15;4.80;;;;;;;;;;5072027;28;20074;-59
2022/03/02 01:21:27;;;;;;;5.15;4.47;;;;;;;;;;5072050;28;20033;-59
2022/03/02 01:23:57;;;;;;;6.70;4.30;;;;;;;;;;5072400;28;20035;-58
2022/03/02 01:26:29;;;;;;;6.85;4.85;;;;;;;;;;5072081;28;20098;-59
2022/03/02 01:28:55;;;;;;;6.88;4.97;;;;;;;;;;5072002;28;20035;-59
2022/03/02 01:31:28;;;;;;;6.28;4.68;;;;;;;;;;5072286;28;20032;-59
2022/03/02 01:33:55;;;;;;;6.03;4.55;;;;;;;;;;5071963;28;20441;-59
2022/03/02 01:36:21;;;;;;;6.38;5.20;;;;;;;;;;5071960;28;20058;-59
2022/03/02 01:38:47;;;;;;;7.05;4.82;;;;;;;;;;5071796;28;20044;-59
2022/03/02 01:41:17;;;;;;;6.38;4.80;;;;;;;;;;5071842;28;20028;-59
2022/03/02 01:43:44;;;;;;;6.72;5.05;;;;;;;;;;5072239;28;20024;-58
2022/03/02 01:46:10;;;;;;;7.03;5.38;;;;;;;;;;5072145;28;20389;-59
2022/03/02 01:48:36;;;;;;;6.50;4.88;;;;;;;;;;5072249;28;20025;-58
2022/03/02 01:51:02;;;;;;;8.45;4.95;;;;;;;;;;5071771;28;20025;-59
2022/03/02 01:53:28;;;;;;;5.35;4.82;;;;;;;;;;5071821;28;20086;-58
2022/03/02 01:56:00;;;;;;;6.30;4.75;;;;;;;;;;5071741;28;20107;-59
2022/03/02 01:58:30;;;;;;;5.68;4.72;;;;;;;;;;5071632;28;20029;-59
2022/03/02 02:00:56;;;;;;;5.85;4.78;;;;;;;;;;5071962;28;20039;-59
2022/03/02 02:03:22;;;;;;;7.28;5.07;;;;;;;;;;5071475;28;20048;-58
2022/03/02 02:05:49;;;;;;;5.32;4.40;;;;;;;;;;5071741;28;20489;-59
2022/03/02 02:08:15;;;;;;;7.63;5.40;;;;;;;;;;5071681;28;20056;-59
2022/03/02 02:10:41;;;;;;;6.45;4.50;;;;;;;;;;5072891;28;20031;-59
2022/03/02 02:13:07;;;;;;;6.72;5.28;;;;;;;;;;5075419;28;20039;-58
2022/03/02 02:15:33;;;;;;;8.52;5.18;;;;;;;;;;5075305;28;20108;-58
2022/03/02 02:17:59;;;;;;;6.05;4.97;;;;;;;;;;5075552;28;20356;-58
2022/03/02 02:20:25;;;;;;;8.30;5.30;;;;;;;;;;5075223;28;20074;-59
2022/03/02 02:22:51;;;;;;;7.80;5.65;;;;;;;;;;5075560;28;20081;-59
2022/03/02 02:25:17;;;;;;;6.47;4.82;;;;;;;;;;5075261;28;20040;-59
2022/03/02 02:27:44;;;;;;;6.15;4.78;;;;;;;;;;5075226;28;20029;-59
2022/03/02 02:30:11;;;;;;;7.95;5.45;;;;;;;;;;5075149;28;20526;-59
2022/03/02 02:32:38;;;;;;;7.50;5.20;;;;;;;;;;5075286;28;20498;-59
2022/03/02 02:35:04;;;;;;;6.40;4.80;;;;;;;;;;5075041;28;20033;-59
2022/03/02 02:37:34;;;;;;;7.53;5.22;;;;;;;;;;5075219;28;20391;-59
2022/03/02 02:40:10;;;;;;;10.10;5.72;;;;;;;;;;5074931;28;20102;-59
2022/03/02 02:42:36;;;;;;;7.75;5.07;;;;;;;;;;5075114;28;20044;-59
2022/03/02 02:45:03;;;;;;;8.00;5.18;;;;;;;;;;5074875;28;20033;-59
2022/03/02 02:47:29;;;;;;;6.50;5.03;;;;;;;;;;5074835;28;20067;-59
2022/03/02 02:49:55;;;;;;;6.55;5.05;;;;;;;;;;5074734;28;20190;-59
2022/03/02 02:52:21;;;;;;;6.85;5.53;;;;;;;;;;5074642;28;20078;-59
2022/03/02 02:54:48;;;;;;;6.38;5.28;;;;;;;;;;5074617;28;20115;-59
2022/03/02 02:57:14;;;;;;;7.18;6.20;;;;;;;;;;5074510;28;20028;-59
2022/03/02 02:59:40;;;;;;;6.53;4.82;;;;;;;;;;5074458;28;20041;-59
2022/03/02 03:02:06;;;;;;;5.88;4.70;;;;;;;;;;5074318;28;20044;-59
2022/03/02 03:04:32;;;;;;;5.88;5.28;;;;;;;;;;5074727;28;20032;-59
2022/03/02 03:06:58;;;;;;;7.60;5.43;;;;;;;;;;5074492;28;20031;-59
2022/03/02 03:09:24;;;;;;;5.90;4.75;;;;;;;;;;5074386;28;20514;-59
2022/03/02 03:11:50;;;;;;;8.07;6.05;;;;;;;;;;5074409;28;20037;-59
2022/03/02 03:14:16;;;;;;;8.15;5.70;;;;;;;;;;5074324;28;20541;-59
2022/03/02 03:16:42;;;;;;;8.93;5.45;;;;;;;;;;5074198;28;20058;-59
2022/03/02 03:19:08;;;;;;;7.45;5.55;;;;;;;;;;5074239;28;20475;-59
2022/03/02 03:21:34;;;;;;;8.02;5.22;;;;;;;;;;5074161;28;20039;-59
2022/03/02 03:24:00;;;;;;;7.90;5.45;;;;;;;;;;5074082;28;20028;-59
2022/03/02 03:26:26;;;;;;;10.13;6.30;;;;;;;;;;5074037;28;20029;-58
2022/03/02 03:28:52;;;;;;;8.18;5.45;;;;;;;;;;5073980;28;20032;-59
2022/03/02 03:31:18;;;;;;;8.27;5.95;;;;;;;;;;5074022;28;20025;-59
2022/03/02 03:33:44;;;;;;;5.55;4.95;;;;;;;;;;5073874;28;20028;-59
2022/03/02 03:36:10;;;;;;;7.43;5.90;;;;;;;;;;5073846;28;20028;-59
2022/03/02 03:38:36;;;;;;;9.02;6.15;;;;;;;;;;5074124;28;20016;-48
2022/03/02 03:41:02;;;;;;;7.75;6.07;;;;;;;;;;5073765;28;20027;-48
2022/03/02 03:43:28;;;;;;;7.60;5.90;;;;;;;;;;5073778;28;20039;-48
2022/03/02 03:45:54;;;;;;;9.30;5.85;;;;;;;;;;5073680;28;20024;-47
2022/03/02 03:48:20;;;;;;;7.38;5.72;;;;;;;;;;5074012;28;20033;-48
2022/03/02 03:50:46;;;;;;;8.73;5.97;;;;;;;;;;5073578;28;20324;-46
2022/03/02 03:53:13;;;;;;;8.15;6.28;;;;;;;;;;5073831;28;20489;-48
2022/03/02 03:55:39;;;;;;;8.07;5.45;;;;;;;;;;5073785;28;20021;-48
2022/03/02 03:58:11;;;;;;;7.85;5.85;;;;;;;;;;5073529;28;20036;-47
2022/03/02 04:00:37;;;;;;;8.98;6.30;;;;;;;;;;5073343;28;20036;-47
2022/03/02 04:03:04;;;;;;;7.57;6.35;;;;;;;;;;5073129;28;20048;-47
2022/03/02 04:05:30;;;;;;;7.03;5.55;;;;;;;;;;5073645;28;20033;-47
2022/03/02 04:07:56;;;;;;;10.15;6.18;;;;;;;;;;5073265;28;20435;-48
2022/03/02 04:10:22;;;;;;;7.55;5.20;;;;;;;;;;5073432;28;20077;-47
2022/03/02 04:12:48;;;;;;;9.02;6.05;;;;;;;;;;5073152;28;20399;-48
2022/03/02 04:15:14;;;;;;;8.65;5.53;;;;;;;;;;5073128;28;20020;-47
2022/03/02 04:17:40;;;;;;;5.72;5.03;;;;;;;;;;5073075;28;20036;-47
2022/03/02 04:20:06;;;;;;;8.55;5.38;;;;;;;;;;5072833;28;20059;-47
2022/03/02 04:22:33;;;;;;;8.02;5.80;;;;;;;;;;5073233;28;20433;-47
2022/03/02 04:24:59;;;;;;;8.65;6.25;;;;;;;;;;5073097;28;20021;-47
2022/03/02 04:27:25;;;;;;;7.82;5.22;;;;;;;;;;5073194;28;20029;-48
2022/03/02 04:29:51;;;;;;;10.05;6.10;;;;;;;;;;5072772;28;20112;-47
2022/03/02 04:32:17;;;;;;;9.23;6.57;;;;;;;;;;5072774;28;20033;-48
2022/03/02 04:34:43;;;;;;;9.13;6.57;;;;;;;;;;5072220;28;20078;-48
2022/03/02 04:37:09;;;;;;;9.93;6.13;;;;;;;;;;5072588;28;20051;-47
2022/03/02 04:39:35;;;;;;;8.48;5.90;;;;;;;;;;5072526;28;20047;-48
2022/03/02 04:42:01;;;;;;;7.72;6.28;;;;;;;;;;5072559;28;20017;-47
2022/03/02 04:44:27;;;;;;;7.45;6.20;;;;;;;;;;5072574;28;20398;-48
2022/03/02 04:46:53;;;;;;;7.72;5.82;;;;;;;;;;5072524;28;20025;-47
2022/03/02 04:49:20;;;;;;;9.15;6.40;;;;;;;;;;5072495;28;20089;-48
2022/03/02 04:51:46;;;;;;;8.55;6.00;;;;;;;;;;5072851;28;20029;-46
2022/03/02 04:57:02;;;;;;;7.90;5.68;;;;;;;;;;5072707;28;20532;-49
2022/03/02 04:59:28;;;;;;;8.02;5.63;;;;;;;;;;5072270;28;20040;-47
2022/03/02 05:01:54;;;;;;;7.60;5.65;;;;;;;;;;5072015;28;20035;-47
2022/03/02 05:04:20;;;;;;;7.75;5.30;;;;;;;;;;5072511;28;20060;-47
2022/03/02 05:06:46;;;;;;;7.28;5.65;;;;;;;;;;5072351;28;20047;-47
2022/03/02 05:09:12;;;;;;;8.55;5.55;;;;;;;;;;5072254;28;20037;-47
2022/03/02 05:11:38;;;;;;;7.05;5.55;;;;;;;;;;5072518;28;20074;-59
2022/03/02 05:14:04;;;;;;;9.18;6.72;;;;;;;;;;5072073;28;20020;-59
2022/03/02 05:16:30;;;;;;;8.25;6.10;;;;;;;;;;5072164;28;20043;-59
2022/03/02 05:18:57;;;;;;;7.00;5.63;;;;;;;;;;5072022;28;20037;-59
2022/03/02 05:21:23;;;;;;;9.85;5.90;;;;;;;;;;5072035;28;20029;-59
2022/03/02 05:23:48;;;;;;;10.13;6.32;;;;;;;;;;5072094;28;20024;-59
2022/03/02 05:26:14;;;;;;;7.10;5.38;;;;;;;;;;5072052;28;20032;-59
2022/03/02 05:28:40;;;;;;;7.00;5.13;;;;;;;;;;5072038;28;20031;-59
2022/03/02 05:31:06;;;;;;;8.05;5.68;;;;;;;;;;5072063;28;20029;-47
2022/03/02 05:33:32;;;;;;;7.72;5.88;;;;;;;;;;5071991;28;20033;-47
2022/03/02 05:35:59;;;;;;;8.15;5.82;;;;;;;;;;5071905;28;20099;-47
2022/03/02 05:38:25;;;;;;;7.03;5.85;;;;;;;;;;5072242;28;20211;-48
2022/03/02 05:40:51;;;;;;;9.25;5.47;;;;;;;;;;5071866;28;20465;-47
2022/03/02 05:43:17;;;;;;;9.52;6.18;;;;;;;;;;5072113;28;20036;-47
2022/03/02 05:45:43;;;;;;;7.35;5.57;;;;;;;;;;5073364;28;20040;-47
2022/03/02 05:48:09;;;;;;;6.30;5.38;;;;;;;;;;5075974;28;20029;-47
2022/03/02 05:50:35;;;;;;;7.88;5.60;;;;;;;;;;5076164;28;20075;-47
2022/03/02 05:53:01;;;;;;;7.78;5.93;;;;;;;;;;5075766;28;20476;-48
2022/03/02 05:55:27;;;;;;;7.60;6.15;;;;;;;;;;5075737;28;20103;-48
2022/03/02 05:57:53;;;;;;;7.45;5.55;;;;;;;;;;5075762;28;20024;-47
2022/03/02 06:00:19;;;;;;;8.50;6.00;;;;;;;;;;5075494;28;20398;-47
2022/03/02 06:02:46;;;;;;;8.02;6.43;;;;;;;;;;5075534;28;20417;-47
2022/03/02 06:05:12;;;;;;;8.20;6.07;;;;;;;;;;5075923;28;20033;-47
2022/03/02 06:07:38;;;;;;;9.13;5.40;;;;;;;;;;5075953;28;20027;-47
2022/03/02 06:10:05;;;;;;;6.45;5.07;;;;;;;;;;5075692;28;20032;-48
2022/03/02 06:12:31;;;;;;;6.78;5.32;;;;;;;;;;5075415;28;20028;-51
2022/03/02 06:14:58;;;;;;;8.30;5.35;;;;;;;;;;5075693;28;20039;-49
2022/03/02 06:17:24;;;;;;;6.38;5.15;;;;;;;;;;5074163;28;20449;-49
2022/03/02 06:19:50;;;;;;;7.10;4.70;;;;;;;;;;5075180;28;20036;-50
2022/03/02 06:22:25;;;;;;;7.78;5.35;;;;;;;;;;5075209;28;20032;-50
2022/03/02 06:24:52;;;;;;;7.78;5.28;;;;;;;;;;5075499;28;20029;-47
2022/03/02 06:27:20;;;;;;;6.82;4.97;;;;;;;;;;5075331;28;20020;-48
2022/03/02 06:29:46;;;;;;;10.02;5.32;;;;;;;;;;5075231;28;20116;-47
2022/03/02 06:32:12;;;;;;;5.80;4.65;;;;;;;;;;5075510;28;20024;-48
2022/03/02 06:34:39;;;;;;;6.40;4.55;;;;;;;;;;5075267;28;20081;-48
2022/03/02 06:37:05;;;;;;;8.55;5.18;;;;;;;;;;5075453;28;20043;-47
2022/03/02 06:39:31;;;;;;;6.50;4.78;;;;;;;;;;5075056;28;20033;-48
2022/03/02 06:42:11;;;;;;;5.68;4.80;;;;;;;;;;5075204;28;20024;-47
2022/03/02 06:44:46;;;;;;;6.30;4.47;;;;;;;;;;5075401;28;20223;-48
2022/03/02 06:47:16;;;;;;;5.60;4.85;;;;;;;;;;5075081;28;20028;-50
2022/03/02 06:49:58;;;;;;;6.93;4.82;;;;;;;;;;5074985;28;20020;-48
2022/03/02 06:52:31;;;;;;;5.90;5.00;;;;;;;;;;5074942;28;20070;-47
2022/03/02 06:54:59;;;;;;;8.90;5.03;;;;;;;;;;5075199;28;20508;-47
2022/03/02 06:57:30;;;;;;;7.25;4.70;;;;;;;;;;5074355;28;20029;-49
2022/03/02 07:00:03;;;;;;;6.55;4.70;;;;;;;;;;5074769;28;20068;-48
2022/03/02 07:02:41;;;;;;;6.07;4.35;;;;;;;;;;5074497;28;20048;-47
2022/03/02 07:05:08;;;;;;;7.60;4.75;;;;;;;;;;5074745;28;20024;-47
2022/03/02 07:07:35;;;;;;;7.53;4.38;;;;;;;;;;5074555;28;20036;-49
2022/03/02 07:10:01;;;;;;;8.43;5.38;;;;;;;;;;5074493;28;20060;-47
2022/03/02 07:12:31;;;;;;;6.30;4.75;;;;;;;;;;5074497;28;20025;-47
2022/03/02 07:14:57;;;;;;;6.32;4.57;;;;;;;;;;5074781;28;20024;-49
2022/03/02 07:17:23;;;;;;;6.38;5.00;;;;;;;;;;5074718;28;20374;-48
2022/03/02 07:19:50;;;;;;;8.07;5.35;;;;;;;;;;5074703;28;20040;-48
2022/03/02 07:22:23;;;;;;;8.00;4.50;;;;;;;;;;5074215;28;20025;-48
2022/03/02 07:25:03;;;;;;;6.40;4.97;;;;;;;;;;5074642;28;20382;-47
2022/03/02 07:27:30;;;;;;;8.65;5.50;;;;;;;;;;5074517;28;20031;-48
2022/03/02 07:29:56;;;;;;;7.22;4.88;;;;;;;;;;5074190;28;20062;-48
2022/03/02 07:32:29;;;;;;;6.28;5.13;;;;;;;;;;5074201;28;20029;-47
2022/03/02 07:35:00;;;;;;;6.97;5.20;;;;;;;;;;5074081;28;20029;-46
2022/03/02 07:37:30;;;;;;;7.22;5.13;;;;;;;;;;5074468;28;20432;-46
2022/03/02 07:39:56;;;;;;;6.00;4.72;;;;;;;;;;5073983;28;20029;-47
2022/03/02 07:42:22;;;;;;;6.45;4.50;;;;;;;;;;5074053;28;20047;-46
2022/03/02 07:44:52;;;;;;;7.65;4.70;;;;;;;;;;5073891;28;20091;-48
2022/03/02 07:47:19;;;;;;;7.95;5.00;;;;;;;;;;5073906;28;20027;-47
2022/03/02 07:49:46;;;;;;;8.60;4.05;;;;;;;;;;5073794;28;20028;-47
2022/03/02 07:52:16;;;;;;;5.78;4.30;;;;;;;;;;5073976;28;20078;-47
2022/03/02 07:54:43;;;;;;;8.18;4.10;;;;;;;;;;5073551;28;20023;-47
2022/03/02 07:57:11;;;;;;;5.47;4.53;;;17.50;89.50;;;;;;5073824;28;20131;-61
2022/03/02 07:59:39;;;;;;;6.05;4.13;;;17.50;89.10;;;;;;5073477;28;20378;-61
2022/03/02 08:02:07;;;;;;;6.85;4.25;;;17.60;89.20;;;;;;5073453;28;20441;-61
2022/03/02 08:04:34;;;;;;;8.30;4.35;;;;;;;;;;5073319;28;20471;-59
2022/03/02 08:07:00;;;;;;;5.40;4.13;;;;;;;;;;5073251;28;20456;-60
2022/03/02 08:09:26;;;;;;;8.38;4.20;;;;;;;;;;5072257;28;20025;-61
2022/03/02 08:11:52;;;;;;;6.68;4.57;;;;;;;;;;5073300;28;20035;-60
2022/03/02 08:14:18;;;;;;;6.38;4.30;;;;;;;;;;5073435;28;20035;-60
2022/03/02 08:16:46;;;;;;;5.15;3.95;;;18.10;88.90;;;;;;5073350;28;20029;-60
2022/03/02 08:19:12;;;;;;;9.02;4.07;;;;;;;;;;5073091;28;20032;-60
2022/03/02 08:21:41;;;;;;;7.70;3.83;;;18.20;88.70;;;;;;5072966;28;20107;-59
2022/03/02 08:24:08;;;;;;;8.27;4.90;;;;;;;;;;5073257;28;20376;-59
2022/03/02 08:26:37;;;;;;;7.72;4.05;;;18.50;88.90;;;;;;5073356;28;20361;-59
2022/03/02 08:29:10;;;;;;;4.85;4.18;;;18.20;88.50;;;;;;5073217;28;20027;-59
2022/03/02 08:31:39;;;;;;;5.53;3.72;;;18.40;88.70;;;;;;5073310;28;20103;-60
2022/03/02 08:34:06;;;;;;;5.03;3.65;;;;;;;;;;5072874;28;20112;-60
2022/03/02 08:36:33;;;;;;;6.15;4.25;;;;;;;;;;5073140;28;20182;-60
2022/03/02 08:39:06;;;;;;;5.82;4.15;;;18.50;88.70;;;;;;5072796;28;20482;-60
2022/03/02 08:41:32;;;;;;;5.80;3.60;;;18.80;84.90;;;;;;5072738;28;20063;-60
2022/03/02 08:43:58;;;;;;;5.05;3.90;;;;;;;;;;5072727;28;20282;-59
2022/03/02 08:46:26;;;;;;;5.35;4.05;;;18.70;88.70;;;;;;5072737;28;20032;-59
2022/03/02 08:48:52;;;;;;;4.35;3.65;;;;;;;;;;5072598;28;20081;-59
2022/03/02 08:51:20;;;;;;;4.93;3.53;;;19.10;88.70;;;;;;5072710;28;20497;-59
2022/03/02 08:53:47;;;;;;;6.30;3.95;;;;;;;;;;5072588;28;20078;-59
2022/03/02 08:56:13;;;;;;;3.67;2.80;;;;;;;;;;5072536;28;20024;-59
2022/03/02 08:58:41;;;;;;;5.78;3.90;;;18.80;88.40;;;;;;5072537;28;20028;-59
2022/03/02 09:01:07;;;;;;;3.88;3.15;;;;;;;;;;5072257;28;20128;-59
2022/03/02 09:03:34;;;;;;;5.57;3.80;;;;;;;;;;5072294;28;20044;-59
2022/03/02 09:06:01;;;;;;;5.95;3.40;;;;;;;;;;5072427;28;20115;-59
2022/03/02 09:08:27;;;;;;;4.53;3.55;;;;;;;;;;5072326;28;20104;-59
2022/03/02 09:10:54;;;;;;;4.68;3.50;;;;;;;;;;5072655;28;20035;-59
2022/03/02 09:13:20;;;;;;;6.30;3.50;;;;;;;;;;5072623;28;20390;-58
2022/03/02 09:15:46;;;;;;;4.47;2.92;;;;;;;;;;5072408;28;20039;-58
2022/03/02 09:18:12;;;;;;;4.90;3.30;;;;;;;;;;5072327;28;20037;-59
2022/03/02 09:20:41;;;;;;;4.68;3.28;;;;;;;;;;5072025;28;20028;-59
2022/03/02 09:23:07;;;;;;;3.83;2.95;;;;;;;;;;5072158;28;20502;-59
2022/03/02 09:25:37;;;;;;;4.80;3.47;;;;;;;;;;5072252;28;20044;-59
2022/03/02 09:28:04;;;;;;;5.40;3.47;;;;;;;;;;5072223;28;20074;-59
2022/03/02 09:30:30;;;;;;;4.03;3.03;;;;;;;;;;5072165;28;20051;-60
2022/03/02 09:32:59;;;;;;;4.35;3.58;;;;;;;;;;5072195;28;20218;-59
2022/03/02 09:35:26;;;;;;;3.70;3.40;;;;;;;;;;5072105;28;20472;-59
2022/03/02 09:37:54;;;;;;;4.18;2.95;;;;;;;;;;5072212;28;20028;-60
2022/03/02 09:40:22;;;;;;;5.35;3.40;;;;;;;;;;5071967;28;20044;-59
2022/03/02 09:42:54;;;;;;;5.00;3.35;;;;;;;;;;5072005;28;20056;-59
2022/03/02 09:45:21;;;;;;;4.65;3.50;;;;;;;;;;5072056;28;20032;-59
2022/03/02 09:47:52;;;;;;;4.47;3.88;;;;;;;;;;5072135;28;20029;-59
2022/03/02 09:50:19;;;;;;;4.78;3.15;;;;;;;;;;5072065;28;20082;-59
2022/03/02 09:52:46;;;;;;;3.85;3.20;;;;;;;;;;5072227;28;20063;-58
2022/03/02 09:55:14;;;;;;;4.22;3.15;;;;;;;;;;5071960;28;20475;-58
2022/03/02 09:57:50;;;;;;;6.30;4.00;;;;;;;;;;5072259;28;20036;-59
2022/03/02 10:00:18;;;;;;;5.18;3.50;;;;;;;;;;5071849;28;20057;-58
2022/03/02 10:02:46;;;;;;;4.22;3.10;;;;;;;;;;5071623;28;20403;-59
2022/03/02 10:05:15;;;;;;;4.93;3.58;;;;;;;;;;5072128;28;20024;-59
2022/03/02 10:07:44;;;;;;;4.45;3.40;;;;;;;;;;5072180;28;20036;-59
2022/03/02 10:10:15;;;;;;;4.88;3.65;;;;;;;;;;5072139;28;20115;-59
2022/03/02 10:12:41;;;;;;;4.15;3.08;;;;;;;;;;5072099;28;20099;-59
2022/03/02 10:15:15;;;;;;;4.07;3.30;;;;;;;;;;5071825;28;20033;-59
2022/03/02 10:17:45;;;;;;;3.63;3.00;;;;;;;;;;5072066;28;20024;-59
2022/03/02 10:20:16;;;;;;;;;;;;;;;;;;5072621;28;20093;-60
2022/03/02 10:23:06;;;;;;;4.43;3.17;;;;;;;;;;5071840;28;19905;-60
2022/03/02 10:25:55;;;;;;;4.72;3.10;;;;;;;;;;5071639;28;20029;-59
2022/03/02 10:28:37;;;;;;;5.60;3.43;;;;;;;;;;5064602;28;20094;-59
2022/03/02 10:31:13;;;;;;;6.22;3.72;;;;;;;;;;5071957;28;20043;-59
2022/03/02 10:33:43;;;;;;;3.53;2.70;;;;;;;;;;5075551;28;20025;-59
2022/03/02 10:36:13;;;;;;;3.90;3.20;;;;;;;;;;5075574;28;20024;-59
2022/03/02 10:38:39;;;;;;;3.58;3.03;;;;;;;;;;5075204;28;20024;-59
2022/03/02 10:41:10;;;;;;;4.63;3.30;;;;;;;;;;5075148;28;20094;-59
2022/03/02 10:43:43;;;;;;;3.88;3.05;;;;;;;;;;5075378;28;20020;-59
2022/03/02 10:46:10;;;;;;;3.50;2.90;;;;;;;;;;5075110;28;20024;-59
2022/03/02 10:48:43;;;;;;;3.85;3.20;;;;;;;;;;5074782;28;20505;-59
2022/03/02 10:51:11;;;;;;;4.00;2.72;;;;;;;;;;5074989;28;20021;-59
2022/03/02 10:53:44;;;;;;;5.07;3.20;;;;;;;;;;5075023;28;20395;-60
2022/03/02 10:56:13;;;;;;;4.47;3.38;;;;;;;;;;5074742;28;20111;-58
2022/03/02 10:58:40;;;;;;;4.97;3.05;;;;;;;;;;5074772;28;20509;-59
2022/03/02 11:01:06;;;;;;;3.70;2.70;;;;;;;;;;5074943;28;20123;-59
2022/03/02 11:03:39;;;;;;;4.63;2.97;;;;;;;;;;5074502;28;20051;-59
2022/03/02 11:06:06;;;;;;;2.90;2.53;;;;;;;;;;5074796;28;20116;-60
2022/03/02 11:08:37;;;;;;;4.82;3.35;;;;;;;;;;5074776;28;20028;-60
2022/03/02 11:11:13;;;;;;;3.78;3.00;;;;;;;;;;5074731;28;20128;-59
2022/03/02 11:13:39;;;;;;;3.15;2.78;;;;;;;;;;5074537;28;20070;-60
2022/03/02 11:16:09;;;;;;;4.60;2.78;;;;;;;;;;5074654;28;20029;-59
2022/03/02 11:18:39;;;;;;;3.25;2.38;;;;;;;;;;5074431;28;20475;-60
2022/03/02 11:21:08;;;;;;;;;;;;;;;;;;5075116;28;20089;-60
2022/03/02 11:23:44;;;;;;;4.18;2.75;;;;;;;;;;5074325;28;19908;-59
2022/03/02 11:26:16;;;;;;;5.28;3.00;;;;;;;;;;5074589;28;20028;-59
2022/03/02 11:28:48;;;;;;;4.82;3.05;;;;;;;;;;5074553;28;20101;-60
2022/03/02 11:31:19;;;;;;;3.97;2.83;;;;;;;;;;5074570;28;20387;-59
2022/03/02 11:33:45;;;;;;;3.97;3.03;;;;;;;;;;5074476;28;20439;-59
2022/03/02 11:36:12;;;;;;;3.92;3.00;;;;;;;;;;5074237;28;20063;-58
2022/03/02 11:38:44;;;;;;;3.97;3.13;;;;;;;;;;5074314;28;20099;-59
2022/03/02 11:41:11;;;;;;;4.82;3.72;;;;;;;;;;5074313;28;20033;-60
2022/03/02 11:43:38;;;;;;;3.88;3.10;;;;;;;;;;5072994;28;20037;-59
2022/03/02 11:46:05;;;;;;;5.05;3.20;;;;;;;;;;5073943;28;20032;-59
2022/03/02 11:48:37;;;;;;;4.30;3.30;;;;;;;;;;5072240;28;20463;-60
2022/03/02 11:51:11;;;;;;;5.32;3.15;;;;;;;;;;5073860;28;20119;-59
2022/03/02 11:53:50;;;;;;;6.07;3.55;;;;;;;;;;5073952;28;20071;-59
2022/03/02 11:56:21;;;;;;;5.55;3.75;;;19.80;88.40;;;;;;5073621;28;20016;-59
2022/03/02 11:59:01;;;;;;;4.43;2.90;;;;;;;;;;5073654;28;20037;-58
2022/03/02 12:01:37;;;;;;;4.43;2.95;;;;;;;;;;5073746;28;20040;-58
2022/03/02 12:04:03;;;;;;;6.90;3.25;;;;;;;;;;5073795;28;20036;-59
2022/03/02 12:06:30;;;;;;;4.35;3.30;;;;;;;;;;5073491;28;20037;-58
2022/03/02 12:08:57;;;;;;;5.75;3.15;;;;;;;;;;5073384;28;20033;-58
2022/03/02 12:11:29;;;;;;;4.20;2.90;;;;;;;;;;5073268;28;20024;-58
2022/03/02 12:14:10;;;;;;;5.45;3.05;;;19.40;83.40;;;;;;5073263;28;20021;-59
2022/03/02 12:16:44;;;;;;;5.60;3.10;;;;;;;;;;5073302;28;20553;-58
2022/03/02 12:19:20;;;;;;;4.57;3.55;;;;;;;;;;5073535;28;20028;-59
2022/03/02 12:21:47;;;;;;;5.30;3.95;;;;;;;;;;5073402;28;20071;-58
2022/03/02 12:24:14;;;;;;;4.57;3.60;;;;;;;;;;5073398;28;20032;-59
2022/03/02 12:26:49;;;;;;;4.13;3.10;;;;;;;;;;5073359;28;20047;-59
2022/03/02 12:29:15;;;;;;;5.22;3.55;;;;;;;;;;5073356;28;20395;-58
2022/03/02 12:31:44;;;;;;;6.88;4.57;;;;;;;;;;5073284;28;20036;-59
2022/03/02 12:34:16;;;;;;;4.28;3.30;;;;;;;;;;5073175;28;20078;-59
2022/03/02 12:36:42;;;;;;;4.75;3.30;;;;;;;;;;5073160;28;20034;-59
2022/03/02 12:39:09;;;;;;;4.38;3.30;;;;;;;;;;5072848;28;20032;-59
2022/03/02 12:41:39;;;;;;;4.72;3.38;;;;;;;;;;5072635;28;20509;-59
2022/03/02 12:44:05;;;;;;;3.53;3.22;;;;;;;;;;5072979;28;20394;-58
2022/03/02 12:46:32;;;;;;;5.40;3.30;;;;;;;;;;5072692;28;20390;-59
2022/03/02 12:48:59;;;;;;;4.03;3.17;;;;;;;;;;5072705;28;20033;-59
2022/03/02 12:51:29;;;;;;;4.38;3.20;;;;;;;;;;5072683;28;20475;-59
2022/03/02 12:53:55;;;;;;;4.03;3.10;;;;;;;;;;5072190;28;20036;-59
2022/03/02 12:56:21;;;;;;;5.25;3.33;;;;;;;;;;5072492;28;20470;-59
2022/03/02 12:58:47;;;;;;;4.03;2.90;;;;;;;;;;5072531;28;20082;-59
2022/03/02 13:01:13;;;;;;;3.70;3.10;;;;;;;;;;5072451;28;20103;-59
2022/03/02 13:03:47;;;;;;;4.60;3.33;;;19.80;86.40;;;;;;5072334;28;20135;-60
2022/03/02 13:06:18;;;;;;;4.95;3.15;;;19.90;86.50;;;;;;5072889;28;20023;-59
2022/03/02 13:08:50;;;;;;;3.85;3.00;;;19.90;86.50;;;;;;5072576;28;20032;-58
2022/03/02 13:11:24;;;;;;;3.92;3.13;;;19.90;81.10;;;;;;5072496;28;20032;-59
2022/03/02 13:13:50;;;;;;;5.13;3.33;;;;;;;;;;5072692;28;20059;-59
2022/03/02 13:16:29;;;;;;;4.88;3.30;;;19.70;87.70;;;;;;5072389;28;20056;-58
2022/03/02 13:18:59;;;;;;;4.47;3.05;;;19.80;89.70;;;;;;5072403;28;20493;-58
2022/03/02 13:21:30;;;;;;;6.65;3.13;;;19.80;84.20;;;;;;5072553;28;20025;-59
2022/03/02 13:24:12;;;;;;;8.00;3.20;;;;;;;;;;5072236;28;20032;-61
2022/03/02 13:26:57;;;;;;;3.30;2.78;;;19.60;91.50;;;;;;5072533;28;20024;-59
2022/03/02 13:29:28;;;;;;;4.35;3.63;;;;;;;;;;5072084;28;20059;-58
2022/03/02 13:32:03;;;;;;;3.38;3.08;;;19.60;89.60;;;;;;5072440;28;20051;-58
2022/03/02 13:34:34;;;;;;;3.63;2.85;;;19.90;90.20;;;;;;5072100;28;20035;-58
2022/03/02 13:37:02;;;;;;;3.45;2.90;;;;;;;;;;5072391;28;20089;-58
2022/03/02 13:39:44;;;;;;;4.65;2.92;;;19.70;90.80;;;;;;5072346;28;20082;-58
2022/03/02 13:42:21;;;;;;;4.45;3.30;;;19.80;91.00;;;;;;5071951;28;20108;-58
2022/03/02 13:44:47;;;;;;;4.60;3.28;;;19.70;92.30;;;;;;5072426;28;20036;-58
2022/03/02 13:47:15;;;;;;;4.30;3.17;;;;;;;;;;5072167;28;20016;-47
2022/03/02 13:49:47;;;;;;;5.07;2.97;;;19.70;91.30;;;;;;5072318;28;20032;-46
2022/03/02 13:52:17;;;;;;;3.92;3.05;;;19.70;94.00;;;;;;5072129;28;20056;-46
2022/03/02 13:54:43;;;;;;;4.30;2.92;;;;;;;;;;5072386;28;20029;-45
2022/03/02 13:57:21;;;;;;;3.72;3.05;;;19.70;91.80;;;;;;5071885;28;20028;-47
2022/03/02 13:59:47;;;;;;;5.07;2.78;;;;;;;;;;5071995;28;20051;-47
2022/03/02 14:02:13;;;;;;;4.05;2.80;;;;;;;;;;5071574;28;20049;-47
2022/03/02 14:04:46;;;;;;;4.03;2.88;;;;;;;;;;5072020;28;20036;-46
2022/03/02 14:07:13;;;;;;;3.30;2.60;;;;;;;;;;5074004;28;20032;-47
2022/03/02 14:09:39;;;;;;;3.45;2.90;;;;;;;;;;5075776;28;20036;-46
2022/03/02 14:12:08;;;;;;;3.55;2.80;;;19.80;92.70;;;;;;5075947;28;20028;-48
2022/03/02 14:14:35;;;;;;;2.80;2.53;;;;;;;;;;5075671;28;20150;-47
2022/03/02 14:17:12;;;;;;;3.38;2.70;;;19.90;93.10;;;;;;5075570;28;20032;-45
2022/03/02 14:19:40;;;;;;;3.50;3.00;;;19.90;95.80;;;;;;5075846;28;20032;-47
2022/03/02 14:22:21;;;;;;;2.85;2.47;;;19.70;95.80;;;;;;5075686;28;20032;-48
2022/03/02 14:24:48;;;;;;;3.00;2.70;;;;;;;;;;5075509;28;20056;-58
2022/03/02 14:27:14;;;;;;;3.92;2.97;;;;;;;;;;5075355;28;20043;-58
2022/03/02 14:29:41;;;;;;;3.65;3.03;;;;;;;;;;5075654;28;20367;-58
2022/03/02 14:32:10;;;;;;;3.22;2.72;;;19.90;93.30;;;;;;5075339;28;20024;-57
2022/03/02 14:34:53;;;;;;;2.60;2.40;;;19.90;93.10;;;;;;5075288;28;20704;-59
2022/03/02 14:37:27;;;;;;;2.70;2.25;;;19.90;93.20;;;;;;5075444;28;20069;-58